• Join FlightAware (Why Join?)
  • Login
  • US Flag 
06:43PM EDT


 

Airport Tracker/Info


-or-


 

Live Flight TrackerFlight Track Log ✈ FFT239 ✈ 23-Jun-2013 ✈ KBNA - KDEN

Flight Track Log - Related Links

Times and Time Zones

All times are in EDT time to prevent confusion due to time zone crossing. See the FFT239 flight status page for this flight to view local times or setup timezone preferences in your user account.

Time Position Orientation Groundspeed Altitude Reporting Facility
EDT Latitude Longitude Course Direction KTS MPH feet Rate Location/Type
09:58AM 36.0970 -86.7080 256° West 163 188 2,000  Level FlightAware
09:59AM 36.0930 -86.7360 260° West 192 221 2,700 1,560 Climbing FlightAware
09:59AM 36.0870 -86.7700 258° West 226 260 3,500 1,620 Climbing FlightAware
09:59AM 36.0860 -86.7870 266° West 244 281 3,800 1,800 Climbing FlightAware
09:59AM 36.0940 -86.8110 292° West 269 310 4,400 2,700 Climbing FlightAware
10:00AM 36.1110 -86.8500 298° West 277 319 5,900 3,180 Climbing FlightAware
10:00AM 36.1270 -86.8860 299° West 280 322 7,300 3,060 Climbing FlightAware
10:01AM 36.1440 -86.9270 297° West 287 330 8,700 2,820 Climbing FlightAware
10:01AM 36.1610 -86.9660 298° West 293 337 9,900 2,040 Climbing FlightAware
10:02AM 36.1900 -87.0330 298° West 331 381 11,100 2,100 Climbing FlightAware
10:03AM 36.2200 -87.1040 298° West 342 394 12,900 2,400 Climbing FlightAware
10:03AM 36.2540 -87.1830 298° West 359 413 14,600 2,400 Climbing FlightAware
10:04AM 36.2780 -87.2640 290° West 360 414 16,400 2,460 Climbing FlightAware
10:05AM 36.2870 -87.3230 281° West 361 415 17,600 2,220 Climbing FlightAware
10:05AM 36.3010 -87.4080 282° West 366 421 19,100 2,160 Climbing FlightAware
10:06AM 36.3090 -87.4570 281° West 366 421 20,000 1,800 Climbing FlightAware
10:06AM 36.3250 -87.5470 282° West 380 437 21,100 1,680 Climbing FlightAware
10:07AM 36.3450 -87.6420 285° West 384 442 22,500 1,620 Climbing FlightAware
10:08AM 36.3620 -87.7290 284° West 397 457 23,400 1,080 Climbing FlightAware
10:08AM 36.3760 -87.7960 285° West 413 475 23,800 660 Climbing FlightAware
10:09AM 36.3940 -87.8870 284° West 431 496 24,200 600 Climbing FlightAware
10:10AM 36.4170 -88.0000 284° West 449 517 24,700 660 Climbing FlightAware
10:10AM 36.4380 -88.1020 284° West 463 533 25,200 900 Climbing FlightAware
10:11AM 36.4600 -88.2150 284° West 468 539 26,000 1,020 Climbing FlightAware
10:12AM 36.4810 -88.3190 284° West 473 544 26,700 1,020 Climbing FlightAware
10:12AM 36.5000 -88.4160 284° West 477 549 27,300 960 Climbing FlightAware
10:13AM 36.5180 -88.5090 284° West 478 550 27,900 420 Climbing FlightAware
10:14AM 36.5390 -88.6210 283° West 478 550 27,900  Level FlightAware
10:14AM 36.5540 -88.7030 283° West 478 550 27,900  Level FlightAware
10:15AM 36.5690 -88.7850 283° West 478 550 27,900  Level FlightAware
10:16AM 36.5890 -88.8940 283° West 478 550 27,900  Level FlightAware
10:16AM 36.6050 -88.9790 283° West 478 550 27,900 840 Level FlightAware
10:19AM 36.6950 -89.4340 284° West 468 539 30,600 900 Climbing FlightAware
10:20AM 36.7180 -89.5560 283° West 467 537 30,900 1,380 Climbing FlightAware
10:20AM 36.7400 -89.6750 283° West 455 524 32,800 1,980 Climbing FlightAware
10:21AM 36.7590 -89.7780 283° West 454 522 33,600 1,200 Climbing FlightAware
10:22AM 36.7790 -89.8850 283° West 448 516 34,500 1,200 Climbing FlightAware
10:22AM 36.7980 -89.9890 283° West 443 510 35,300 960 Climbing FlightAware
10:23AM 36.8180 -90.0980 283° West 443 510 35,900 600 Climbing FlightAware
10:24AM 36.8380 -90.2090 283° West 448 516 36,200 420 Climbing FlightAware
10:25AM 36.8560 -90.3110 282° West 448 516 36,500 420 Climbing FlightAware
10:25AM 36.8720 -90.4000 283° West 447 514 36,800 360 Climbing FlightAware
10:26AM 36.8920 -90.5120 283° West 447 514 37,000 360 Climbing FlightAware
10:27AM 36.9080 -90.6020 283° West 444 511 37,300 420 Climbing FlightAware
10:27AM 36.9230 -90.6870 282° West 441 507 37,500 360 Climbing FlightAware
10:28AM 36.9420 -90.7990 282° West 434 499 37,800 360 Climbing FlightAware
10:28AM 36.9560 -90.8780 283° West 434 499 38,000 240 Climbing FlightAware
10:29AM 36.9720 -90.9700 282° West 434 499 38,100  Climbing FlightAware
10:30AM 36.9970 -91.1110 283° West 434 499 38,000 -60 Descending FlightAware
10:31AM 37.0120 -91.2020 282° West 433 498 38,000 60 Level FlightAware
10:31AM 37.0310 -91.3120 282° West 432 497 38,100 60 Climbing FlightAware
10:32AM 37.0490 -91.4210 282° West 431 496 38,100  Level FlightAware
10:33AM 37.0670 -91.5250 282° West 430 495 38,100 -120 Level FlightAware
10:34AM 37.0830 -91.6240 281° West 429 494 38,000 -120 Descending FlightAware
10:34AM 37.1010 -91.7270 282° West 428 493 38,000  Level FlightAware
10:35AM 37.1170 -91.8260 281° West 430 495 38,000  Level FlightAware
10:36AM 37.1340 -91.9280 282° West 431 496 38,000 60 Level FlightAware
10:36AM 37.1510 -92.0340 281° West 432 497 38,100 60 Climbing FlightAware
10:37AM 37.1670 -92.1290 282° West 433 498 38,100  Level FlightAware
10:38AM 37.1800 -92.2090 282° West 435 501 38,100  Level FlightAware
10:38AM 37.1940 -92.2980 281° West 436 502 38,100  Level FlightAware
10:39AM 37.2120 -92.4110 281° West 438 504 38,100  Level FlightAware
10:39AM 37.2230 -92.4820 281° West 438 504 38,100  Level FlightAware
10:40AM 37.2400 -92.5850 282° West 439 505 38,100  Level FlightAware
10:41AM 37.2560 -92.6860 281° West 438 504 38,100  Level FlightAware
10:41AM 37.2730 -92.7950 281° West 437 503 38,100 -120 Level FlightAware
10:42AM 37.2850 -92.8730 281° West 435 501 38,000 -120 Descending FlightAware
10:43AM 37.3010 -92.9750 281° West 435 501 38,000  Level FlightAware
10:43AM 37.3170 -93.0810 281° West 435 501 38,000  Level FlightAware
10:44AM 37.3330 -93.1810 281° West 437 503 38,000 60 Level FlightAware
10:45AM 37.3440 -93.2570 280° West 438 504 38,100  Climbing FlightAware
10:45AM 37.3560 -93.3380 281° West 439 505 38,000 -120 Descending FlightAware
10:46AM 37.3680 -93.4480 278° West 441 507 38,000 60 Level FlightAware
10:47AM 37.3800 -93.5520 278° West 440 506 38,100 60 Climbing FlightAware
10:47AM 37.3900 -93.6450 278° West 439 505 38,100  Level FlightAware
10:48AM 37.4020 -93.7620 277° West 438 504 38,100 -120 Level FlightAware
10:49AM 37.4140 -93.8730 278° West 438 504 38,000 -120 Descending FlightAware
10:49AM 37.4240 -93.9720 277° West 438 504 38,000  Level FlightAware
10:50AM 37.4360 -94.0840 278° West 438 504 38,000 60 Level FlightAware
10:51AM 37.4460 -94.1790 278° West 436 502 38,100  Climbing FlightAware
10:51AM 37.4570 -94.2830 278° West 437 503 38,000 -120 Descending FlightAware
10:52AM 37.4680 -94.3920 277° West 437 503 38,000  Level FlightAware
10:53AM 37.4780 -94.4990 277° West 440 506 38,000  Level FlightAware
10:53AM 37.4890 -94.6050 277° West 442 509 38,000 60 Level FlightAware
10:54AM 37.4990 -94.7050 277° West 442 509 38,100 60 Climbing FlightAware
10:55AM 37.5090 -94.8140 277° West 443 510 38,100  Level FlightAware
10:56AM 37.5200 -94.9230 277° West 443 510 38,100  Level FlightAware
10:56AM 37.5310 -95.0420 277° West 444 511 38,100  Level FlightAware
10:57AM 37.5410 -95.1410 277° West 443 510 38,100  Level FlightAware
10:58AM 37.5500 -95.2440 276° West 440 506 38,100 -120 Level FlightAware
10:58AM 37.5610 -95.3590 277° West 438 504 38,000 -120 Descending FlightAware
10:59AM 37.5700 -95.4610 276° West 435 501 38,000  Level FlightAware
11:00AM 37.5790 -95.5570 277° West 435 501 38,000  Level FlightAware
11:00AM 37.5900 -95.6790 277° West 438 504 38,000  Level FlightAware
11:01AM 37.5980 -95.7700 276° West 438 504 38,000 60 Level FlightAware
11:02AM 37.6070 -95.8680 277° West 440 506 38,100 60 Climbing FlightAware
11:02AM 37.6170 -95.9780 277° West 439 505 38,100  Level FlightAware
11:03AM 37.6260 -96.0820 276° West 440 506 38,100 -120 Level FlightAware
11:04AM 37.6330 -96.1680 276° West 442 509 38,000  Descending FlightAware
11:04AM 37.6430 -96.2820 276° West 442 509 38,100 60 Climbing FlightAware
11:05AM 37.6520 -96.3930 276° West 441 507 38,100  Level FlightAware
11:06AM 37.6640 -96.5320 276° West 441 507 38,100 -360 Level FlightAware
11:07AM 37.6720 -96.6340 276° West 440 506 37,600 -900 Descending FlightAware
11:07AM 37.6810 -96.7470 276° West 446 513 36,900 -1,020 Descending FlightAware
11:08AM 37.6890 -96.8420 276° West 449 517 36,300 -780 Descending FlightAware
11:09AM 37.6960 -96.9410 275° West 448 516 36,000 -240 Descending FlightAware
11:09AM 37.7060 -97.0580 276° West 442 509 36,000 60 Level FlightAware
11:10AM 37.7110 -97.1290 275° West 438 504 36,100  Climbing FlightAware
11:11AM 37.7190 -97.2270 276° West 440 506 36,000  Descending FlightAware
11:11AM 37.7280 -97.3460 275° West 443 510 36,100 60 Climbing FlightAware
11:12AM 37.7370 -97.4510 276° West 442 509 36,100  Level FlightAware
11:13AM 37.7610 -97.5500 287° West 446 513 36,100  Level FlightAware
11:13AM 37.7880 -97.6510 289° West 445 512 36,100  Level FlightAware
11:14AM 37.8060 -97.7180 289° West 444 511 36,100  Level FlightAware
11:14AM 37.8280 -97.8000 289° West 440 506 36,100  Level FlightAware
11:15AM 37.8510 -97.9150 284° West 431 496 36,100 -120 Level FlightAware
11:16AM 37.8630 -98.0280 278° West 426 490 36,000 -120 Descending FlightAware
11:17AM 37.8730 -98.1160 278° West 426 490 36,000  Level FlightAware
11:17AM 37.8860 -98.2310 278° West 426 490 36,000  Level FlightAware
11:18AM 37.8960 -98.3230 278° West 429 494 36,000  Level FlightAware
11:19AM 37.9060 -98.4180 278° West 431 496 36,000 60 Level FlightAware
11:19AM 37.9170 -98.5180 278° West 433 498 36,100 60 Climbing FlightAware
11:20AM 37.9260 -98.5990 278° West 434 499 36,100  Level FlightAware
11:20AM 37.9370 -98.7030 278° West 429 494 36,100 -120 Level FlightAware
11:21AM 37.9470 -98.8050 277° West 428 493 36,000 -120 Descending FlightAware
11:22AM 37.9580 -98.9100 278° West 430 495 36,000  Level FlightAware
11:23AM 37.9690 -99.0160 278° West 431 496 36,000 60 Level FlightAware
11:23AM 37.9790 -99.1110 278° West 430 495 36,100  Climbing FlightAware
11:24AM 37.9900 -99.2170 278° West 430 495 36,000 -120 Descending FlightAware
11:25AM 37.9970 -99.2900 277° West 430 495 36,000  Level FlightAware
11:25AM 38.0070 -99.3940 277° West 430 495 36,000  Level FlightAware
11:26AM 38.0140 -99.4670 277° West 430 495 36,000  Level FlightAware
11:27AM 38.0210 -99.5430 277° West 430 495 36,000  Level FlightAware
11:27AM 38.0280 -99.6160 277° West 430 495 36,000  Level FlightAware
11:28AM 38.0360 -99.6920 278° West 430 495 36,000  Level FlightAware
11:29AM 38.0460 -99.8010 277° West 430 495 36,000  Level FlightAware
11:29AM 38.0530 -99.8780 277° West 430 495 36,000  Level FlightAware
11:30AM 38.0630 -99.9760 277° West 430 495 36,000  Level FlightAware
11:31AM 38.0700 -100.0530 277° West 430 495 36,000  Level FlightAware
11:31AM 38.0800 -100.1510 277° West 430 495 36,000  Level FlightAware
11:32AM 38.0870 -100.2300 276° West 430 495 36,000  Level FlightAware
11:33AM 38.0970 -100.3320 277° West 430 495 36,000  Level FlightAware
11:33AM 38.1070 -100.4300 277° West 430 495 36,000  Level FlightAware
11:34AM 38.1319 -100.7186 277° West 424 488 36,000  Level Kansas City Center
11:35AM 38.1464 -100.8831 276° West 424 488 36,000  Level Kansas City Center
11:36AM 38.1586 -101.0239 276° West 422 486 36,000  Level Kansas City Center
11:37AM 38.1678 -101.1411 276° West 422 486 36,100  Climbing Denver Center
11:38AM 38.1800 -101.2817 276° West 420 483 36,000 -180 Descending Denver Center
11:39AM 38.2069 -101.4425 282° West 420 483 35,800 -540 Descending Denver Center
11:40AM 38.2672 -101.5661 302° West 428 493 34,900 -840 Descending Denver Center
11:41AM 38.3389 -101.7108 302° West 435 501 34,100 -540 Descending Denver Center
11:42AM 38.4011 -101.8386 302° West 441 507 33,900 -600 Descending Denver Center
11:43AM 38.4742 -101.9864 302° West 439 505 32,900 -720 Descending Denver Center
11:48AM 38.8120 -102.6870 302° West 448 516 29,600 -720 Descending FlightAware
11:49AM 38.8560 -102.7800 301° West 451 519 28,900 -1,020 Descending FlightAware
11:50AM 38.8980 -102.8680 302° West 447 514 28,300 -1,020 Descending FlightAware
11:50AM 38.9280 -102.9320 301° West 443 510 27,800 -1,020 Descending FlightAware
11:51AM 38.9740 -103.0290 301° West 435 501 27,100 -1,020 Descending FlightAware
11:51AM 39.0170 -103.1210 301° West 435 501 26,400 -1,080 Descending FlightAware
11:52AM 39.0570 -103.2060 301° West 432 497 25,700 -1,020 Descending FlightAware
11:53AM 39.1060 -103.3110 301° West 429 494 25,000 -960 Descending FlightAware
11:54AM 39.1490 -103.4020 301° West 427 491 24,300 -1,080 Descending FlightAware
11:54AM 39.1880 -103.4870 301° West 421 484 23,600 -1,020 Descending FlightAware
11:55AM 39.2270 -103.5700 301° West 416 479 23,000 -1,020 Descending FlightAware
11:56AM 39.2710 -103.6650 301° West 415 478 22,200 -960 Descending FlightAware
11:56AM 39.3020 -103.7320 301° West 388 447 21,700 -1,020 Descending FlightAware
11:57AM 39.3480 -103.8330 301° West 349 402 20,800 -1,080 Descending FlightAware
11:58AM 39.3920 -103.9270 301° West 393 452 20,000 -840 Descending FlightAware
11:59AM 39.4360 -104.0040 307° West 405 466 19,600 -960 Descending FlightAware
11:59AM 39.4840 -104.0830 308° West 403 464 18,700 -1,620 Descending FlightAware
12:00PM 39.5360 -104.1680 308° West 380 437 17,300 -1,680 Descending FlightAware
12:01PM 39.5770 -104.2360 308° West 372 428 16,400 -1,080 Descending FlightAware
12:01PM 39.6220 -104.3140 307° West 375 432 15,900 -360 Descending FlightAware
12:02PM 39.6670 -104.3890 308° West 337 388 15,900 -120 Level FlightAware
12:03PM 39.7060 -104.4530 308° West 313 360 15,800 -840 Descending FlightAware
12:04PM 39.7410 -104.5070 310° West 311 358 14,800 -1,740 Descending FlightAware
12:04PM 39.7580 -104.5190 332° Northwest 313 360 14,300 -2,520 Descending FlightAware
12:04PM 39.7800 -104.5230 352° North 319 367 13,600 -2,400 Descending FlightAware
12:05PM 39.8400 -104.5220 North 306 352 12,100 -1,680 Descending FlightAware
12:05PM 39.8970 -104.5220 360° North 278 320 11,300 -960 Descending FlightAware
12:06PM 39.9470 -104.5220 360° North 268 308 10,800 -1,140 Descending FlightAware
12:07PM 40.0080 -104.5200 North 266 306 9,700 -1,320 Descending FlightAware
12:07PM 40.0420 -104.5190 North 261 300 9,100 -1,200 Descending FlightAware
12:08PM 40.0570 -104.5230 348° North 255 293 8,900 -720 Descending FlightAware
12:08PM 40.0690 -104.5350 323° Northwest 246 283 8,800 -720 Descending FlightAware
12:08PM 40.0750 -104.5520 295° West 237 273 8,600 -720 Descending FlightAware
12:08PM 40.0760 -104.5720 274° West 230 265 8,500 -840 Descending FlightAware
12:08PM 40.0760 -104.5930 270° West 228 262 8,200 -1,200 Descending FlightAware
12:09PM 40.0740 -104.6120 262° West 226 260 7,900 -1,200 Descending FlightAware
12:09PM 40.0690 -104.6250 243° Southwest 221 254 7,700 -840 Descending FlightAware
12:09PM 40.0610 -104.6330 217° Southwest 215 247 7,600 -600 Descending FlightAware
12:09PM 40.0430 -104.6480 213° Southwest 199 229 7,400 -600 Descending FlightAware
12:10PM 40.0220 -104.6650 212° Southwest 182 209 7,100 -540 Descending FlightAware
12:10PM 40.0010 -104.6790 207° Southwest 164 189 6,900 -540 Descending FlightAware
12:11PM 39.9550 -104.6860 187° South 154 177 6,300 -660 Descending FlightAware
12:12PM 39.9320 -104.6860 180° South 142 163 5,900 -780 Descending FlightAware
12:12PM 39.9150 -104.6870 183° South 144 166 5,600 -720 Descending FlightAware
12:13PM 39.8970 -104.6870 180° South 144 166 5,300 -660 Descending FlightAware
12:13PM 39.8810 -104.6870 180° South 72 83 -11,400 Descending FlightAware
12:14PM 39.8760 -104.6850 163° South 36 41  Level FlightAware
12:14PM 39.8740 -104.6850 180° South 35 40  Level FlightAware
12:14PM 39.8690 -104.6850 180° South 42 48  Level FlightAware
12:15PM 39.8640 -104.6850 180° South 40 46  Level FlightAware
12:15PM 39.8600 -104.6850 180° South 35 40  Level FlightAware
12:16PM 39.8570 -104.6850 180° South 30 35  Level FlightAware
12:16PM 39.8550 -104.6850 180° South 29 33  Level FlightAware
12:17PM 39.8530 -104.6820 131° Southeast 25 29  Level FlightAware
12:17PM 39.8530 -104.6800 90° East 29 33  Level FlightAware
12:17PM 39.8530 -104.6750 90° East 30 35  Level FlightAware
12:21PM 39.8500 -104.6667 199° South  Level FlightAware Approximate
12:22PM 39.8617 -104.6732 199° South  Level Estimated
12:23PM 39.8617 -104.6732 199° South  Level Estimated